Time;durP1;ratioP1;P1;durP2;ratioP2;P2;SDS_P1;SDS_P2;PMS_P1;PMS_P2;Temp;Humidity;BMP_temperature;BMP_pressure;BME280_temperature;BME280_humidity;BME280_pressure;Samples;Min_cycle;Max_cycle;Signal;HPM_P1;HPM_P2
2022/03/30 00:02:08;;;;;;;5.13;3.72;;;23.40;37.40;;;;;;5023324;28;20030;-51
2022/03/30 00:04:36;;;;;;;5.68;3.97;;;23.40;37.40;;;;;;5023681;28;20025;-50
2022/03/30 00:07:03;;;;;;;5.82;3.85;;;23.40;37.40;;;;;;5024487;28;20045;-50
2022/03/30 00:09:29;;;;;;;5.47;4.22;;;23.40;37.40;;;;;;5023907;28;20026;-51
2022/03/30 00:11:56;;;;;;;5.60;3.85;;;23.40;37.40;;;;;;5024300;28;20040;-51
2022/03/30 00:14:22;;;;;;;5.75;3.85;;;23.40;37.40;;;;;;5007220;28;20029;-51
2022/03/30 00:16:48;;;;;;;5.22;4.03;;;23.40;37.30;;;;;;5024665;28;20026;-49
2022/03/30 00:19:14;;;;;;;5.50;4.20;;;23.40;37.40;;;;;;5024146;28;20393;-51
2022/03/30 00:21:40;;;;;;;5.10;3.88;;;23.30;37.30;;;;;;5023953;28;20028;-51
2022/03/30 00:24:06;;;;;;;6.10;4.07;;;23.30;37.40;;;;;;5023627;28;20022;-50
2022/03/30 00:26:32;;;;;;;4.95;3.78;;;23.40;37.30;;;;;;5023329;28;20033;-50
2022/03/30 00:28:57;;;;;;;5.25;3.80;;;23.40;37.30;;;;;;5023538;28;20029;-51
2022/03/30 00:31:23;;;;;;;5.90;4.35;;;23.40;37.40;;;;;;5023827;28;20242;-51
2022/03/30 00:33:51;;;;;;;5.82;4.20;;;23.30;37.30;;;;;;5025123;28;20026;-51
2022/03/30 00:36:17;;;;;;;5.25;3.88;;;23.30;37.30;;;;;;5027738;28;20026;-51
2022/03/30 00:38:43;;;;;;;6.28;4.30;;;23.30;37.30;;;;;;5027330;28;20452;-49
2022/03/30 00:41:09;;;;;;;5.90;4.30;;;23.30;37.30;;;;;;5027135;28;20037;-50
2022/03/30 00:43:35;;;;;;;5.60;3.97;;;23.30;37.30;;;;;;5027299;28;20032;-51
2022/03/30 00:46:01;;;;;;;6.03;4.22;;;23.30;37.30;;;;;;5027438;28;20024;-50
2022/03/30 00:48:26;;;;;;;5.30;3.72;;;23.30;37.30;;;;;;5027279;28;20025;-49
2022/03/30 00:50:52;;;;;;;5.88;4.07;;;23.30;37.30;;;;;;5027137;28;20099;-51
2022/03/30 00:53:18;;;;;;;5.93;4.30;;;23.30;37.30;;;;;;5026462;28;20112;-51
2022/03/30 00:55:45;;;;;;;6.32;4.13;;;23.30;37.30;;;;;;5027101;28;20100;-50
2022/03/30 00:58:11;;;;;;;5.63;4.15;;;23.30;37.20;;;;;;5027057;28;20033;-50
2022/03/30 01:00:38;;;;;;;5.97;4.18;;;23.30;37.30;;;;;;5025815;28;20052;-50
2022/03/30 01:03:03;;;;;;;5.65;3.85;;;23.20;37.10;;;;;;5026418;28;20029;-51
2022/03/30 01:05:29;;;;;;;5.68;4.07;;;23.30;37.30;;;;;;5009637;28;20034;-51
2022/03/30 01:07:58;;;;;;;7.60;4.85;;;23.20;37.20;;;;;;5026950;28;20032;-50
2022/03/30 01:10:24;;;;;;;6.07;4.28;;;23.20;37.20;;;;;;5026167;28;20025;-50
2022/03/30 01:12:52;;;;;;;5.80;4.28;;;23.20;37.10;;;;;;5026985;28;20041;-50
2022/03/30 01:15:18;;;;;;;5.88;3.83;;;23.20;37.10;;;;;;5026068;28;20025;-50
2022/03/30 01:17:44;;;;;;;5.65;4.25;;;23.20;37.10;;;;;;5026486;28;20390;-50
2022/03/30 01:20:11;;;;;;;6.07;4.25;;;23.20;37.10;;;;;;5026222;28;20034;-51
2022/03/30 01:22:37;;;;;;;5.70;4.22;;;23.20;37.10;;;;;;5025627;28;20025;-51
2022/03/30 01:25:04;;;;;;;6.25;4.22;;;23.20;37.10;;;;;;5025319;28;20022;-50
2022/03/30 01:27:30;;;;;;;5.70;4.03;;;23.20;37.10;;;;;;5026226;28;20033;-49
2022/03/30 01:32:41;;;;;;;4.80;3.92;;;23.20;37.10;;;;;;5025829;28;20759;-48
2022/03/30 01:35:07;;;;;;;5.10;3.53;;;23.20;37.10;;;;;;5008754;28;20042;-50
2022/03/30 01:37:33;;;;;;;4.90;3.67;;;23.20;37.10;;;;;;5026280;28;20052;-50
2022/03/30 01:40:03;;;;;;;5.05;3.50;;;23.20;37.10;;;;;;5025108;28;20033;-50
2022/03/30 01:42:30;;;;;;;5.63;4.18;;;23.20;37.10;;;;;;5025685;28;20025;-50
2022/03/30 01:44:55;;;;;;;5.70;4.10;;;23.20;37.00;;;;;;5025089;28;20109;-50
2022/03/30 01:47:21;;;;;;;5.00;4.00;;;23.20;37.10;;;;;;5025120;28;20464;-50
2022/03/30 01:49:48;;;;;;;5.93;4.43;;;23.20;37.10;;;;;;5025521;28;20101;-50
2022/03/30 01:52:16;;;;;;;5.30;4.40;;;23.20;37.10;;;;;;5025724;28;20037;-51
2022/03/30 01:54:42;;;;;;;6.03;4.25;;;23.20;37.10;;;;;;5008399;28;20079;-49
2022/03/30 01:57:08;;;;;;;4.95;3.78;;;23.20;37.10;;;;;;5026132;28;20026;-50
2022/03/30 01:59:34;;;;;;;7.25;4.30;;;23.20;37.10;;;;;;5025921;28;20065;-51
2022/03/30 02:02:02;;;;;;;5.72;4.43;;;23.20;37.00;;;;;;5024931;28;20905;-50
2022/03/30 02:04:28;;;;;;;5.45;3.88;;;23.10;37.00;;;;;;5008062;28;20103;-49
2022/03/30 02:06:54;;;;;;;5.20;3.67;;;23.10;37.00;;;;;;5026031;28;20021;-50
2022/03/30 02:09:20;;;;;;;5.03;3.72;;;23.10;37.00;;;;;;5026303;28;20090;-50
2022/03/30 02:11:46;;;;;;;5.18;3.95;;;23.10;37.00;;;;;;5025526;28;20590;-50
2022/03/30 02:14:12;;;;;;;5.30;3.97;;;23.10;36.90;;;;;;5026388;28;20507;-49
2022/03/30 02:16:38;;;;;;;5.15;3.65;;;23.10;37.00;;;;;;5026037;28;20029;-50
2022/03/30 02:19:04;;;;;;;5.28;3.88;;;23.10;36.90;;;;;;5026114;28;20585;-51
2022/03/30 02:21:30;;;;;;;5.10;4.03;;;23.10;36.90;;;;;;5025761;28;20521;-51
2022/03/30 02:23:56;;;;;;;6.60;4.82;;;23.10;36.90;;;;;;5025953;28;20076;-51
2022/03/30 02:26:21;;;;;;;5.65;4.00;;;23.10;36.90;;;;;;5025316;28;20112;-51
2022/03/30 02:28:54;;;;;;;5.18;3.90;;;23.10;37.00;;;;;;5025431;28;20028;-50
2022/03/30 02:31:23;;;;;;;5.80;4.40;;;23.10;37.00;;;;;;5025029;28;20456;-50
2022/03/30 02:33:49;;;;;;;5.60;3.95;;;23.10;36.90;;;;;;5024986;28;20401;-50
2022/03/30 02:36:15;;;;;;;4.82;3.63;;;23.10;36.90;;;;;;5025564;28;20036;-50
2022/03/30 02:38:42;;;;;;;4.93;3.50;;;23.10;37.00;;;;;;5025377;28;20098;-50
2022/03/30 02:41:09;;;;;;;5.47;3.97;;;23.10;37.00;;;;;;4990414;28;20131;-51
2022/03/30 02:43:35;;;;;;;6.43;4.25;;;23.10;37.00;;;;;;5025056;28;20669;-49
2022/03/30 02:46:01;;;;;;;4.97;3.58;;;23.10;36.90;;;;;;5025608;28;20032;-51
2022/03/30 02:48:31;;;;;;;4.78;3.67;;;23.10;36.90;;;;;;5007608;28;20034;-50
2022/03/30 02:50:58;;;;;;;5.05;3.95;;;23.00;36.80;;;;;;5024443;28;20079;-50
2022/03/30 02:53:24;;;;;;;5.75;4.10;;;23.00;36.80;;;;;;5024956;28;20037;-50
2022/03/30 02:55:50;;;;;;;5.35;4.20;;;23.10;36.90;;;;;;5024437;28;20103;-50
2022/03/30 02:58:16;;;;;;;4.88;3.83;;;23.10;36.90;;;;;;5006515;28;20029;-50
2022/03/30 03:00:43;;;;;;;7.32;4.20;;;23.00;36.70;;;;;;5024194;28;20285;-50
2022/03/30 03:03:10;;;;;;;5.15;4.03;;;23.00;36.80;;;;;;5024916;28;20116;-51
2022/03/30 03:05:37;;;;;;;5.80;4.15;;;23.00;36.70;;;;;;5025029;28;20025;-50
2022/03/30 03:08:07;;;;;;;5.22;4.05;;;23.00;36.70;;;;;;5024925;28;20013;-51
2022/03/30 03:10:36;;;;;;;6.22;4.38;;;23.00;36.70;;;;;;5006647;28;20026;-52
2022/03/30 03:13:03;;;;;;;5.20;3.67;;;23.00;36.70;;;;;;5024393;28;20043;-51
2022/03/30 03:15:33;;;;;;;5.00;4.03;;;23.00;36.70;;;;;;5024852;28;20045;-51
2022/03/30 03:18:01;;;;;;;5.63;4.22;;;23.00;36.70;;;;;;5024667;28;20036;-50
2022/03/30 03:20:28;;;;;;;5.53;4.30;;;23.00;36.80;;;;;;5024634;28;20025;-51
2022/03/30 03:22:55;;;;;;;5.18;4.03;;;23.00;36.80;;;;;;5024286;28;20083;-51
2022/03/30 03:25:21;;;;;;;5.50;4.22;;;23.00;36.80;;;;;;5024372;28;20581;-50
2022/03/30 03:27:47;;;;;;;5.55;4.20;;;23.00;36.80;;;;;;5024301;28;20116;-50
2022/03/30 03:30:14;;;;;;;5.75;3.85;;;23.00;36.70;;;;;;5024447;28;20027;-51
2022/03/30 03:32:41;;;;;;;5.22;3.40;;;23.00;36.80;;;;;;5024211;28;20040;-49
2022/03/30 03:35:09;;;;;;;4.90;3.70;;;23.00;36.70;;;;;;5024194;28;20045;-51
2022/03/30 03:37:36;;;;;;;5.43;4.00;;;23.00;36.70;;;;;;5024600;28;20402;-50
2022/03/30 03:40:03;;;;;;;5.85;4.30;;;23.00;36.70;;;;;;5023032;28;20029;-49
2022/03/30 03:42:29;;;;;;;5.18;3.72;;;23.00;36.70;;;;;;5024412;28;20037;-50
2022/03/30 03:44:54;;;;;;;6.35;4.80;;;23.00;36.70;;;;;;5024162;28;20026;-50
2022/03/30 03:47:20;;;;;;;4.97;3.75;;;23.00;36.70;;;;;;5024505;28;20055;-49
2022/03/30 03:49:46;;;;;;;5.13;4.13;;;23.00;36.70;;;;;;5024010;28;20040;-50
2022/03/30 03:52:12;;;;;;;5.75;4.05;;;23.00;36.70;;;;;;5023891;28;20124;-50
2022/03/30 03:54:38;;;;;;;5.47;4.13;;;23.00;36.70;;;;;;5023931;28;20105;-51
2022/03/30 03:57:04;;;;;;;6.53;4.20;;;23.00;36.60;;;;;;5023757;28;20044;-51
2022/03/30 03:59:29;;;;;;;6.13;4.70;;;23.00;36.70;;;;;;5024185;28;20073;-50
2022/03/30 04:01:55;;;;;;;6.10;4.93;;;23.00;36.70;;;;;;5006173;28;20501;-49
2022/03/30 04:04:21;;;;;;;5.75;4.28;;;23.00;36.70;;;;;;5024026;28;20076;-51
2022/03/30 04:06:46;;;;;;;5.38;4.38;;;23.00;36.70;;;;;;5023701;28;20026;-50
2022/03/30 04:09:12;;;;;;;5.35;3.78;;;23.00;36.70;;;;;;5007663;28;20106;-51
2022/03/30 04:11:38;;;;;;;4.65;3.67;;;23.00;36.70;;;;;;5027487;28;20065;-52
2022/03/30 04:14:04;;;;;;;5.85;4.00;;;22.90;36.70;;;;;;5028097;28;20128;-51
2022/03/30 04:16:29;;;;;;;5.38;4.25;;;23.00;36.80;;;;;;5027739;28;20044;-50
2022/03/30 04:18:55;;;;;;;5.85;4.20;;;22.90;36.80;;;;;;5028205;28;20051;-50
2022/03/30 04:21:22;;;;;;;5.53;4.25;;;22.90;36.90;;;;;;5010827;28;20115;-50
2022/03/30 04:23:47;;;;;;;5.22;4.00;;;22.90;36.90;;;;;;5027836;28;20021;-50
2022/03/30 04:26:13;;;;;;;6.20;4.30;;;22.90;36.90;;;;;;5027208;28;20029;-51
2022/03/30 04:28:40;;;;;;;5.53;4.10;;;23.00;37.00;;;;;;5010447;28;20086;-51
2022/03/30 04:31:12;;;;;;;6.63;4.50;;;23.00;37.00;;;;;;5027503;28;20104;-52
2022/03/30 04:33:38;;;;;;;4.85;3.70;;;23.00;37.00;;;;;;5027797;28;20091;-50
2022/03/30 04:36:05;;;;;;;5.53;3.72;;;23.00;37.00;;;;;;5027975;28;20485;-51
2022/03/30 04:38:33;;;;;;;4.95;3.78;;;23.00;37.00;;;;;;5009484;28;20025;-51
2022/03/30 04:40:59;;;;;;;4.97;3.60;;;23.00;37.00;;;;;;5027069;28;20493;-49
2022/03/30 04:43:25;;;;;;;4.32;3.28;;;23.10;37.10;;;;;;5027682;28;20056;-49
2022/03/30 04:45:50;;;;;;;4.70;3.33;;;23.00;37.00;;;;;;5027462;28;20085;-49
2022/03/30 04:48:16;;;;;;;4.80;3.47;;;23.10;37.00;;;;;;5027207;28;20060;-50
2022/03/30 04:50:42;;;;;;;6.30;4.28;;;23.10;37.00;;;;;;5026881;28;20040;-50
2022/03/30 04:53:08;;;;;;;5.10;3.47;;;23.20;36.90;;;;;;5026288;28;20037;-49
2022/03/30 04:55:36;;;;;;;5.90;3.40;;;23.20;37.50;;;;;;5027024;28;20056;-50
2022/03/30 04:58:02;;;;;;;4.53;3.30;;;23.20;36.90;;;;;;5027686;28;20029;-49
2022/03/30 05:00:28;;;;;;;5.50;3.70;;;23.20;36.90;;;;;;5026605;28;20159;-49
2022/03/30 05:02:53;;;;;;;4.65;3.33;;;23.20;36.80;;;;;;5008025;28;20030;-49
2022/03/30 05:05:20;;;;;;;5.25;3.35;;;23.20;36.80;;;;;;5025876;28;20129;-49
2022/03/30 05:07:46;;;;;;;4.90;3.63;;;23.20;36.80;;;;;;5026307;28;20062;-49
2022/03/30 05:10:13;;;;;;;5.47;3.35;;;23.30;36.90;;;;;;5024254;28;20493;-49
2022/03/30 05:12:40;;;;;;;4.63;3.35;;;23.30;36.90;;;;;;5023980;28;20052;-50
2022/03/30 05:15:07;;;;;;;5.25;3.58;;;23.20;36.70;;;;;;5024097;28;20030;-49
2022/03/30 05:17:33;;;;;;;6.05;3.65;;;23.30;36.90;;;;;;5021046;28;20028;-49
2022/03/30 05:19:59;;;;;;;5.63;4.32;;;23.30;36.90;;;;;;5024665;28;20026;-49
2022/03/30 05:22:25;;;;;;;4.68;3.50;;;23.30;37.10;;;;;;5006177;28;20401;-51
2022/03/30 05:24:51;;;;;;;5.43;3.95;;;23.30;37.20;;;;;;5006781;28;20108;-50
2022/03/30 05:27:16;;;;;;;6.32;4.32;;;23.30;37.20;;;;;;5005089;28;20104;-50
2022/03/30 05:29:42;;;;;;;4.93;3.45;;;23.30;37.10;;;;;;5024622;28;20733;-50
2022/03/30 05:32:08;;;;;;;5.70;4.20;;;23.30;37.10;;;;;;5024746;28;20021;-50
2022/03/30 05:34:34;;;;;;;5.40;3.92;;;23.40;37.30;;;;;;5024296;28;20056;-51
2022/03/30 05:37:00;;;;;;;6.05;4.53;;;23.40;37.10;;;;;;5006888;28;20448;-51
2022/03/30 05:39:26;;;;;;;5.65;4.75;;;23.40;37.10;;;;;;5024655;28;20025;-49
2022/03/30 05:41:54;;;;;;;5.95;4.00;;;23.30;37.10;;;;;;5024874;28;20038;-50
2022/03/30 05:44:20;;;;;;;5.47;4.15;;;23.40;37.10;;;;;;5023655;28;20029;-50
2022/03/30 05:46:46;;;;;;;6.13;4.35;;;23.40;37.00;;;;;;5024778;28;20033;-50
2022/03/30 05:49:12;;;;;;;4.47;3.60;;;23.40;37.00;;;;;;5005382;28;20091;-49
2022/03/30 05:51:37;;;;;;;8.43;4.40;;;23.40;36.90;;;;;;4995585;28;20038;-49
2022/03/30 05:54:03;;;;;;;7.75;4.13;;;23.40;37.00;;;;;;5015081;28;20037;-50
2022/03/30 05:59:15;;;;;;;5.25;3.75;;;23.40;37.60;;;;;;5012675;28;20022;-51
2022/03/30 06:01:42;;;;;;;5.15;3.70;;;23.40;36.90;;;;;;5015280;28;20059;-50
2022/03/30 06:04:07;;;;;;;4.90;3.45;;;23.40;36.90;;;;;;5015556;28;20035;-50
2022/03/30 06:06:34;;;;;;;5.65;4.35;;;23.40;36.90;;;;;;5015031;28;20021;-50
2022/03/30 06:09:05;;;;;;;5.22;4.00;;;23.40;36.90;;;;;;5018820;28;20025;-49
2022/03/30 06:11:31;;;;;;;4.88;3.70;;;23.40;36.90;;;;;;5011103;28;20042;-50
2022/03/30 06:13:58;;;;;;;5.18;3.83;;;23.40;37.00;;;;;;5019672;28;20658;-50
2022/03/30 06:16:25;;;;;;;5.93;3.88;;;23.40;37.00;;;;;;5017636;28;20030;-50
2022/03/30 06:18:51;;;;;;;7.13;4.80;;;23.50;36.80;;;;;;5015970;28;20048;-51
2022/03/30 06:21:17;;;;;;;5.85;4.45;;;23.50;37.40;;;;;;5017169;28;20042;-51
2022/03/30 06:23:43;;;;;;;7.40;4.20;;;23.50;37.50;;;;;;5015951;28;20025;-51
2022/03/30 06:26:08;;;;;;;5.53;4.13;;;23.50;37.60;;;;;;5018314;28;20459;-51
2022/03/30 06:28:34;;;;;;;6.32;4.65;;;23.50;37.70;;;;;;5019876;28;20112;-51
2022/03/30 06:31:00;;;;;;;6.65;3.85;;;23.50;37.70;;;;;;5014395;28;20029;-51
2022/03/30 06:33:26;;;;;;;5.00;3.70;;;23.50;37.70;;;;;;5020924;28;20101;-51
2022/03/30 06:35:52;;;;;;;5.03;3.88;;;23.50;37.60;;;;;;5024266;28;20552;-50
2022/03/30 06:38:18;;;;;;;6.28;3.88;;;23.50;37.60;;;;;;5024270;28;20033;-51
2022/03/30 06:40:47;;;;;;;5.05;3.78;;;23.50;37.60;;;;;;5023156;28;20037;-50
2022/03/30 06:43:16;;;;;;;6.90;4.32;;;23.50;37.70;;;;;;5023175;28;20049;-51
2022/03/30 06:45:43;;;;;;;6.25;4.30;;;23.50;37.60;;;;;;5024626;28;20489;-50
2022/03/30 06:48:11;;;;;;;5.60;3.58;;;23.50;37.70;;;;;;5025030;28;20033;-51
2022/03/30 06:50:37;;;;;;;6.20;4.45;;;23.50;37.70;;;;;;5024043;28;20033;-50
2022/03/30 06:53:05;;;;;;;5.82;4.13;;;23.50;37.80;;;;;;5024767;28;20056;-50
2022/03/30 06:55:31;;;;;;;5.55;4.30;;;23.50;37.70;;;;;;5024749;28;20021;-51
2022/03/30 06:57:57;;;;;;;5.05;3.83;;;23.50;37.70;;;;;;5024371;28;20136;-50
2022/03/30 07:00:22;;;;;;;6.10;4.43;;;23.50;37.70;;;;;;5017893;28;20030;-51
2022/03/30 07:02:48;;;;;;;5.63;3.60;;;23.50;37.60;;;;;;5021751;28;20029;-51
2022/03/30 07:05:14;;;;;;;5.25;4.07;;;23.50;37.60;;;;;;5019171;28;20029;-51
2022/03/30 07:10:27;;;;;;;5.10;3.67;;;23.50;37.50;;;;;;5023840;28;20091;-50
2022/03/30 07:12:53;;;;;;;5.97;3.97;;;23.50;37.50;;;;;;5018337;28;20410;-50
2022/03/30 07:15:20;;;;;;;5.60;3.38;;;23.50;37.50;;;;;;5023745;28;20528;-50
2022/03/30 07:17:51;;;;;;;6.18;4.07;;;23.50;37.50;;;;;;5023303;28;20034;-51
2022/03/30 07:20:18;;;;;;;7.45;3.67;;;23.50;37.50;;;;;;5005692;28;20037;-49
2022/03/30 07:22:45;;;;;;;6.38;3.95;;;23.50;37.50;;;;;;5003916;28;20105;-51
2022/03/30 07:25:11;;;;;;;5.28;3.60;;;23.50;37.50;;;;;;5004318;28;20022;-50
2022/03/30 07:27:43;;;;;;;6.63;4.00;;;23.50;37.40;;;;;;5003731;28;20029;-50
2022/03/30 07:30:10;;;;;;;5.93;4.22;;;23.50;37.40;;;;;;5023271;28;20029;-50
2022/03/30 07:32:41;;;;;;;6.60;4.25;;;23.50;37.40;;;;;;5024122;28;20039;-50
2022/03/30 07:35:09;;;;;;;6.57;4.55;;;23.50;37.40;;;;;;5006254;28;20026;-51
2022/03/30 07:37:36;;;;;;;7.97;4.50;;;23.50;37.40;;;;;;5024383;28;20083;-50
2022/03/30 07:40:03;;;;;;;8.25;4.63;;;23.50;37.40;;;;;;5022782;28;20717;-51
2022/03/30 07:42:29;;;;;;;8.13;4.45;;;23.50;37.40;;;;;;5022867;28;20305;-50
2022/03/30 07:44:55;;;;;;;7.20;4.18;;;23.40;37.40;;;;;;5005302;28;20068;-51
2022/03/30 07:47:21;;;;;;;6.53;4.30;;;23.50;37.40;;;;;;5023478;28;20057;-50
2022/03/30 07:49:48;;;;;;;6.55;4.07;;;23.50;38.10;;;;;;5009292;28;20033;-51
2022/03/30 07:52:14;;;;;;;7.28;4.85;;;23.50;37.40;;;;;;5023240;28;20472;-50
2022/03/30 07:54:41;;;;;;;6.20;4.28;;;23.50;37.40;;;;;;5023346;28;20030;-52
2022/03/30 07:57:07;;;;;;;6.88;4.88;;;23.40;37.30;;;;;;5022526;28;20211;-51
2022/03/30 07:59:33;;;;;;;7.30;4.85;;;23.50;37.40;;;;;;5023741;28;20360;-50
2022/03/30 08:01:59;;;;;;;6.53;4.50;;;23.50;37.40;;;;;;5014395;28;20040;-50
2022/03/30 08:04:25;;;;;;;8.77;5.10;;;23.50;37.30;;;;;;5030011;28;20037;-51
2022/03/30 08:06:51;;;;;;;8.18;4.82;;;23.40;37.30;;;;;;5023476;28;20049;-51
2022/03/30 08:09:17;;;;;;;7.93;4.85;;;23.50;37.40;;;;;;5020872;28;20036;-51
2022/03/30 08:11:43;;;;;;;6.88;4.78;;;23.40;37.30;;;;;;5021761;28;20025;-51
2022/03/30 08:14:09;;;;;;;6.35;4.70;;;23.40;37.30;;;;;;5021233;28;20088;-52
2022/03/30 08:16:35;;;;;;;7.22;5.63;;;23.40;37.30;;;;;;5016205;28;20719;-52
2022/03/30 08:19:01;;;;;;;6.50;4.78;;;23.40;37.30;;;;;;5019547;28;20048;-51
2022/03/30 08:24:11;;;;;;;7.85;5.15;;;23.40;37.40;;;;;;5020903;28;20037;-50
2022/03/30 08:26:38;;;;;;;8.02;5.57;;;23.40;38.10;;;;;;5021553;28;20070;-50
2022/03/30 08:29:05;;;;;;;9.05;5.75;;;23.40;37.50;;;;;;5022042;28;20025;-50
2022/03/30 08:31:31;;;;;;;7.63;5.25;;;23.40;37.50;;;;;;5022104;28;20592;-51
2022/03/30 08:33:58;;;;;;;8.55;5.35;;;23.40;37.60;;;;;;5005520;28;20053;-51
2022/03/30 08:36:23;;;;;;;7.50;5.43;;;23.40;38.30;;;;;;5024665;28;20532;-50
2022/03/30 08:38:49;;;;;;;9.60;6.07;;;23.40;37.60;;;;;;5024177;28;20032;-50
2022/03/30 08:41:15;;;;;;;8.93;6.00;;;23.40;37.60;;;;;;5005618;28;20053;-50
2022/03/30 08:43:41;;;;;;;9.50;6.20;;;23.40;37.60;;;;;;5024168;28;20640;-51
2022/03/30 08:46:07;;;;;;;8.57;6.05;;;23.40;37.50;;;;;;5023773;28;20084;-50
2022/03/30 08:48:33;;;;;;;9.48;6.47;;;23.40;37.50;;;;;;5023563;28;20053;-51
2022/03/30 08:50:59;;;;;;;8.45;5.45;;;23.40;37.50;;;;;;5023366;28;20017;-50
2022/03/30 08:53:26;;;;;;;7.82;6.05;;;23.50;37.60;;;;;;5023758;28;20548;-50
2022/03/30 08:55:53;;;;;;;8.77;5.97;;;23.40;37.50;;;;;;5025749;28;20045;-52
2022/03/30 08:58:19;;;;;;;8.25;6.05;;;23.50;37.60;;;;;;5027728;28;20064;-50
2022/03/30 09:00:45;;;;;;;9.02;5.93;;;23.50;37.50;;;;;;5026914;28;20076;-51
2022/03/30 09:03:15;;;;;;;9.25;6.07;;;23.50;37.50;;;;;;5027303;28;20033;-51
2022/03/30 09:05:40;;;;;;;9.43;5.47;;;23.50;37.50;;;;;;5009774;28;20087;-51
2022/03/30 09:08:07;;;;;;;8.95;6.10;;;23.50;37.40;;;;;;5027016;28;20436;-51
2022/03/30 09:10:35;;;;;;;10.10;6.40;;;23.50;37.40;;;;;;5026992;28;20041;-51
2022/03/30 09:13:02;;;;;;;8.15;5.88;;;23.50;37.30;;;;;;5026583;28;20033;-51
2022/03/30 09:15:28;;;;;;;7.85;5.00;;;23.50;37.30;;;;;;5027008;28;20022;-49
2022/03/30 09:17:59;;;;;;;7.63;5.63;;;23.50;37.20;;;;;;5026107;28;20044;-49
2022/03/30 09:20:25;;;;;;;7.57;5.80;;;23.50;37.20;;;;;;5024914;28;20026;-50
2022/03/30 09:22:56;;;;;;;8.57;6.15;;;23.50;37.20;;;;;;5026985;28;20064;-50
2022/03/30 09:25:27;;;;;;;8.63;5.55;;;23.50;37.10;;;;;;5027109;28;20464;-51
2022/03/30 09:27:55;;;;;;;7.85;5.90;;;23.50;37.10;;;;;;5026594;28;20026;-50
2022/03/30 09:30:21;;;;;;;7.93;5.38;;;23.50;37.10;;;;;;5026505;28;20466;-51
2022/03/30 09:32:49;;;;;;;8.18;5.57;;;23.50;37.10;;;;;;5026755;28;20759;-50
2022/03/30 09:35:24;;;;;;;7.28;5.50;;;23.50;37.00;;;;;;5009104;28;20032;-50
2022/03/30 09:38:11;;;;;;;7.13;5.50;;;23.50;37.00;;;;;;5008777;28;20041;-51
2022/03/30 09:40:41;;;;;;;7.38;5.35;;;23.50;37.00;;;;;;5026004;28;20040;-51
2022/03/30 09:43:11;;;;;;;7.07;5.25;;;23.50;37.00;;;;;;5008278;28;20469;-50
2022/03/30 09:45:36;;;;;;;7.50;5.30;;;23.50;37.00;;;;;;5026931;28;20029;-50
2022/03/30 09:48:26;;;;;;;7.40;5.05;;;23.50;37.00;;;;;;5008720;28;20513;-51
2022/03/30 09:50:53;;;;;;;7.10;5.35;;;23.50;37.00;;;;;;5026283;28;20025;-50
2022/03/30 09:53:22;;;;;;;7.55;5.18;;;23.50;36.90;;;;;;5008128;28;20491;-50
2022/03/30 09:56:01;;;;;;;6.72;5.22;;;23.50;36.90;;;;;;5025867;28;20516;-50
2022/03/30 09:58:32;;;;;;;7.03;5.28;;;23.50;36.90;;;;;;5006396;28;20674;-50
2022/03/30 10:01:08;;;;;;;6.55;5.25;;;23.50;37.00;;;;;;5006257;28;20022;-51
2022/03/30 10:03:43;;;;;;;6.93;4.78;;;23.50;36.90;;;;;;5006486;28;20026;-51
2022/03/30 10:06:15;;;;;;;7.85;5.30;;;23.50;36.90;;;;;;5005534;28;20591;-52
2022/03/30 10:08:45;;;;;;;7.72;5.55;;;23.50;36.90;;;;;;5006330;28;20025;-50
2022/03/30 10:11:15;;;;;;;6.97;5.28;;;23.50;36.90;;;;;;5020278;28;20022;-51
2022/03/30 10:13:41;;;;;;;6.82;5.07;;;23.50;36.90;;;;;;5026387;28;20061;-51
2022/03/30 10:16:08;;;;;;;6.78;5.05;;;23.50;36.90;;;;;;5026490;28;20034;-50
2022/03/30 10:18:35;;;;;;;7.70;5.00;;;23.50;36.90;;;;;;5025838;28;20111;-52
2022/03/30 10:21:22;;;;;;;6.78;4.90;;;23.50;36.80;;;;;;5025304;28;20037;-50
2022/03/30 10:24:17;;;;;;;6.93;4.65;;;23.50;36.80;;;;;;5025860;28;20053;-52
2022/03/30 10:27:05;;;;;;;6.53;4.80;;;23.50;36.80;;;;;;5025991;28;20041;-52
2022/03/30 10:29:32;;;;;;;6.68;4.80;;;23.50;36.80;;;;;;5026013;28;20022;-50
2022/03/30 10:32:25;;;;;;;6.13;4.60;;;23.50;36.80;;;;;;5025651;28;20068;-51
2022/03/30 10:34:53;;;;;;;6.13;4.25;;;23.50;36.80;;;;;;5021926;28;20494;-51
2022/03/30 10:37:28;;;;;;;5.70;4.47;;;23.50;36.80;;;;;;5025898;28;20044;-51
2022/03/30 10:39:57;;;;;;;5.53;4.30;;;23.50;36.80;;;;;;5025418;28;20120;-50
2022/03/30 10:42:23;;;;;;;6.20;4.68;;;23.50;36.80;;;;;;5008121;28;20907;-51
2022/03/30 10:44:51;;;;;;;5.97;4.70;;;23.50;36.80;;;;;;5025298;28;20064;-50
2022/03/30 10:47:18;;;;;;;6.38;4.85;;;23.50;36.80;;;;;;5025313;28;20031;-51
2022/03/30 10:49:55;;;;;;;7.15;4.40;;;23.50;36.80;;;;;;5007215;28;20072;-50
2022/03/30 10:52:35;;;;;;;6.28;4.18;;;23.50;36.80;;;;;;5025048;28;20116;-50
2022/03/30 10:55:29;;;;;;;5.93;4.18;;;23.50;36.80;;;;;;5025239;28;20037;-51
2022/03/30 10:58:01;;;;;;;6.47;4.70;;;23.50;36.80;;;;;;5013581;28;20068;-51
2022/03/30 11:00:27;;;;;;;5.53;4.07;;;23.50;36.80;;;;;;5025382;28;20028;-52
2022/03/30 11:03:08;;;;;;;6.40;4.80;;;23.50;36.80;;;;;;5007245;28;20029;-50
2022/03/30 11:05:35;;;;;;;6.80;4.68;;;23.50;36.80;;;;;;5025191;28;20033;-50
2022/03/30 11:08:05;;;;;;;7.13;4.95;;;23.50;36.70;;;;;;5010070;28;20033;-50
2022/03/30 11:10:47;;;;;;;6.43;4.60;;;23.50;36.70;;;;;;5013860;28;20690;-50
2022/03/30 11:13:23;;;;;;;6.13;4.20;;;23.50;36.70;;;;;;5024257;28;20108;-50
2022/03/30 11:15:59;;;;;;;6.03;4.40;;;23.50;36.60;;;;;;5024834;28;20083;-51
2022/03/30 11:18:26;;;;;;;5.72;4.03;;;23.50;36.70;;;;;;5024483;28;20633;-51
2022/03/30 11:21:14;;;;;;;5.72;4.07;;;23.50;36.60;;;;;;5024663;28;20045;-52
2022/03/30 11:24:01;;;;;;;4.85;3.75;;;23.50;37.40;;;;;;5024490;28;20710;-51
2022/03/30 11:27:05;;;;;;;6.82;3.97;;;23.50;36.70;;;;;;5024732;28;20045;-51
2022/03/30 11:29:52;;;;;;;5.50;4.07;;;23.50;36.70;;;;;;5006797;28;20634;-50
2022/03/30 11:32:24;;;;;;;7.32;4.40;;;23.50;36.70;;;;;;5024548;28;20028;-51
2022/03/30 11:35:01;;;;;;;5.82;4.20;;;23.50;36.70;;;;;;5024525;28;20018;-50
2022/03/30 11:37:28;;;;;;;5.78;3.75;;;23.50;36.60;;;;;;5024650;28;20273;-50
2022/03/30 11:40:03;;;;;;;5.50;3.92;;;23.50;36.70;;;;;;5024010;28;20025;-50
2022/03/30 11:42:29;;;;;;;5.47;3.97;;;23.50;36.60;;;;;;5006558;28;20080;-51
2022/03/30 11:45:12;;;;;;;4.70;3.55;;;23.50;36.60;;;;;;5023887;28;20029;-50
2022/03/30 11:47:48;;;;;;;5.15;3.78;;;23.50;36.60;;;;;;5024290;28;20022;-51
2022/03/30 11:50:27;;;;;;;5.47;3.92;;;23.50;36.60;;;;;;5006049;28;20037;-50
2022/03/30 11:53:13;;;;;;;4.78;3.60;;;23.50;36.60;;;;;;5023867;28;20045;-49
2022/03/30 11:55:53;;;;;;;5.63;3.50;;;23.50;36.60;;;;;;5023300;28;20306;-50
2022/03/30 11:58:51;;;;;;;6.35;3.83;;;23.50;36.60;;;;;;5024325;28;20112;-50
2022/03/30 12:01:21;;;;;;;8.13;3.58;;;23.50;36.60;;;;;;5019410;28;20142;-50
2022/03/30 12:03:51;;;;;;;6.07;4.07;;;23.50;36.60;;;;;;5024142;28;20025;-49
2022/03/30 12:06:19;;;;;;;5.35;3.65;;;23.50;37.20;;;;;;5024024;28;20029;-51
2022/03/30 12:08:48;;;;;;;5.13;3.50;;;23.50;36.60;;;;;;5023297;28;20029;-50
2022/03/30 12:11:15;;;;;;;5.57;3.67;;;23.50;36.60;;;;;;5023833;28;20025;-50
2022/03/30 12:13:41;;;;;;;5.35;3.88;;;23.50;36.60;;;;;;5023357;28;20025;-50
2022/03/30 12:16:15;;;;;;;5.72;3.80;;;23.50;36.50;;;;;;5023992;28;20146;-50
2022/03/30 12:18:42;;;;;;;4.82;3.58;;;23.50;36.50;;;;;;5024067;28;20080;-50
2022/03/30 12:21:07;;;;;;;5.28;3.75;;;23.50;36.50;;;;;;5006370;28;20033;-50
2022/03/30 12:23:33;;;;;;;5.43;3.58;;;23.50;36.50;;;;;;5024227;28;20473;-49
2022/03/30 12:25:59;;;;;;;4.88;3.30;;;23.50;36.40;;;;;;5024343;28;20389;-50
2022/03/30 12:28:32;;;;;;;4.95;3.40;;;23.50;36.40;;;;;;5024468;28;20030;-50
2022/03/30 12:30:59;;;;;;;5.28;3.53;;;23.50;36.40;;;;;;5026247;28;20037;-51
2022/03/30 12:33:25;;;;;;;5.05;3.22;;;23.50;36.40;;;;;;5027340;28;20029;-50
2022/03/30 12:35:54;;;;;;;5.35;3.40;;;23.50;36.40;;;;;;5028229;28;20026;-50
2022/03/30 12:38:22;;;;;;;4.85;3.47;;;23.50;36.40;;;;;;5028424;28;20022;-50
2022/03/30 12:40:53;;;;;;;5.00;3.22;;;23.50;36.30;;;;;;5027426;28;20559;-51
2022/03/30 12:43:27;;;;;;;4.93;3.20;;;23.50;36.40;;;;;;5006802;28;20029;-51
2022/03/30 12:46:03;;;;;;;4.63;3.30;;;23.50;36.40;;;;;;5026539;28;20022;-51
2022/03/30 12:48:34;;;;;;;5.60;3.78;;;23.50;36.40;;;;;;5023387;28;20464;-50
2022/03/30 12:51:02;;;;;;;7.32;4.78;;;23.50;36.50;;;;;;5011959;28;20033;-49
2022/03/30 12:53:32;;;;;;;5.22;4.10;;;23.50;36.60;;;;;;5007106;28;20045;-50
2022/03/30 12:56:11;;;;;;;5.55;4.22;;;23.50;36.60;;;;;;5026485;28;20071;-51
2022/03/30 12:58:53;;;;;;;6.03;4.32;;;23.50;36.50;;;;;;5025692;28;20072;-50
2022/03/30 13:01:28;;;;;;;6.00;4.13;;;23.50;36.30;;;;;;5026494;28;20517;-50
2022/03/30 13:03:55;;;;;;;6.38;4.53;;;23.60;36.40;;;;;;5026387;28;20026;-50
2022/03/30 13:06:21;;;;;;;5.28;3.42;;;23.60;36.40;;;;;;5025954;28;20069;-50